createdAt,value
2023-03-03T00:00:35.201Z,8.13
2023-03-03T00:03:04.925Z,8.10
2023-03-03T00:05:35.314Z,8.48
2023-03-03T00:08:02.011Z,8.18
2023-03-03T00:10:28.720Z,8.75
2023-03-03T00:12:55.580Z,8.85
2023-03-03T00:15:25.615Z,8.50
2023-03-03T00:17:53.001Z,9.13
2023-03-03T00:20:35.611Z,8.48
2023-03-03T00:23:39.142Z,8.40
2023-03-03T00:26:34.102Z,9.20
2023-03-03T00:29:01.945Z,8.90
2023-03-03T00:31:36.049Z,8.73
2023-03-03T00:36:53.206Z,8.27
2023-03-03T00:39:19.748Z,9.07
2023-03-03T00:41:46.324Z,8.73
2023-03-03T00:44:31.736Z,8.90
2023-03-03T00:47:22.403Z,8.70
2023-03-03T00:49:48.983Z,8.30
2023-03-03T00:52:18.373Z,8.57
2023-03-03T00:54:45.470Z,8.80
2023-03-03T00:57:15.061Z,8.73
2023-03-03T00:59:45.801Z,8.98
2023-03-03T01:02:12.584Z,9.38
2023-03-03T01:04:40.433Z,8.52
2023-03-03T01:07:07.028Z,8.80
2023-03-03T01:09:33.953Z,8.15
2023-03-03T01:12:00.606Z,8.20
2023-03-03T01:14:27.266Z,8.23
2023-03-03T01:16:54.101Z,8.90
2023-03-03T01:19:20.760Z,8.70
2023-03-03T01:21:47.463Z,8.40
2023-03-03T01:24:14.045Z,8.90
2023-03-03T01:26:40.665Z,8.13
2023-03-03T01:29:07.557Z,8.60
2023-03-03T01:31:34.389Z,9.10
2023-03-03T01:34:01.277Z,8.63
2023-03-03T01:36:28.965Z,8.68
2023-03-03T01:38:55.824Z,8.68
2023-03-03T01:41:22.522Z,8.10
2023-03-03T01:43:50.940Z,8.52
2023-03-03T01:46:32.875Z,8.40
2023-03-03T01:49:04.322Z,7.93
2023-03-03T01:51:36.989Z,8.63
2023-03-03T01:54:12.906Z,8.35
2023-03-03T01:56:39.617Z,8.52
2023-03-03T01:59:12.415Z,8.65
2023-03-03T02:01:39.368Z,8.80
2023-03-03T02:04:06.049Z,8.55
2023-03-03T02:06:39.145Z,8.85
2023-03-03T02:09:20.242Z,8.75
2023-03-03T02:11:47.471Z,8.85
2023-03-03T02:14:14.073Z,8.70
2023-03-03T02:16:43.051Z,8.77
2023-03-03T02:19:57.920Z,9.18
2023-03-03T02:22:47.294Z,8.35
2023-03-03T02:25:21.617Z,8.73
2023-03-03T02:27:50.864Z,8.73
2023-03-03T02:30:20.959Z,9.38
2023-03-03T02:32:47.845Z,8.90
2023-03-03T02:35:29.983Z,9.10
2023-03-03T02:38:02.658Z,8.85
2023-03-03T02:40:31.952Z,9.20
2023-03-03T02:42:59.226Z,9.05
2023-03-03T02:45:25.878Z,9.30
2023-03-03T02:47:52.516Z,9.32
2023-03-03T02:50:19.538Z,9.48
2023-03-03T02:52:46.099Z,9.20
2023-03-03T02:55:12.711Z,9.63
2023-03-03T02:57:39.388Z,9.30
2023-03-03T03:00:06.847Z,9.75
2023-03-03T03:02:34.294Z,9.63
2023-03-03T03:05:00.941Z,9.80
2023-03-03T03:07:27.847Z,9.40
2023-03-03T03:09:55.929Z,9.95
2023-03-03T03:12:22.599Z,9.90
2023-03-03T03:14:53.509Z,9.43
2023-03-03T03:17:20.107Z,9.40
2023-03-03T03:19:47.127Z,9.88
2023-03-03T03:22:13.908Z,9.55
2023-03-03T03:24:40.461Z,9.63
2023-03-03T03:27:08.847Z,9.35
2023-03-03T03:29:35.837Z,9.75
2023-03-03T03:32:04.868Z,9.60
2023-03-03T03:34:31.497Z,10.05
2023-03-03T03:36:58.567Z,9.88
2023-03-03T03:39:27.346Z,9.90
2023-03-03T03:41:54.404Z,10.20
2023-03-03T03:44:23.922Z,10.02
2023-03-03T03:46:50.677Z,10.40
2023-03-03T03:49:18.921Z,10.90
2023-03-03T03:51:47.310Z,11.10
2023-03-03T03:54:17.067Z,10.45
2023-03-03T03:56:43.817Z,11.30
2023-03-03T03:59:10.693Z,10.32
2023-03-03T04:01:38.479Z,11.13
2023-03-03T04:04:05.454Z,10.73
2023-03-03T04:06:32.835Z,10.43
2023-03-03T04:09:00.263Z,10.32
2023-03-03T04:11:29.552Z,11.38
2023-03-03T04:13:56.172Z,11.05
2023-03-03T04:16:23.004Z,11.30
2023-03-03T04:18:50.851Z,11.52
2023-03-03T04:21:17.999Z,11.55
2023-03-03T04:23:45.992Z,11.10
2023-03-03T04:26:12.766Z,11.85
2023-03-03T04:28:39.697Z,11.60
2023-03-03T04:31:07.421Z,11.57
2023-03-03T04:33:34.684Z,11.88
2023-03-03T04:36:02.474Z,11.15
2023-03-03T04:38:29.153Z,11.68
2023-03-03T04:40:56.572Z,11.35
2023-03-03T04:43:25.189Z,11.82
2023-03-03T04:45:53.447Z,11.65
2023-03-03T04:48:21.281Z,11.57
2023-03-03T04:50:48.050Z,10.90
2023-03-03T04:53:14.679Z,11.02
2023-03-03T04:55:42.324Z,11.93
2023-03-03T04:58:10.373Z,12.10
2023-03-03T05:00:39.056Z,11.70
2023-03-03T05:03:07.171Z,11.20
2023-03-03T05:05:33.903Z,11.20
2023-03-03T05:08:00.505Z,11.07
2023-03-03T05:10:27.164Z,11.65
2023-03-03T05:12:53.806Z,11.35
2023-03-03T05:15:20.499Z,10.73
2023-03-03T05:17:47.126Z,12.07
2023-03-03T05:20:14.195Z,11.35
2023-03-03T05:22:41.337Z,11.40
2023-03-03T05:25:09.190Z,11.57
2023-03-03T05:27:35.851Z,11.93
2023-03-03T05:30:02.605Z,11.40
2023-03-03T05:32:29.289Z,12.15
2023-03-03T05:34:56.011Z,12.55
2023-03-03T05:37:24.464Z,12.27
2023-03-03T05:39:51.098Z,11.57
2023-03-03T05:42:17.717Z,11.82
2023-03-03T05:44:44.285Z,12.07
2023-03-03T05:47:11.024Z,11.90
2023-03-03T05:49:37.716Z,12.02
2023-03-03T05:52:04.434Z,11.82
2023-03-03T05:54:31.525Z,11.38
2023-03-03T05:56:58.166Z,11.73
2023-03-03T05:59:24.918Z,12.13
2023-03-03T06:01:51.836Z,12.00
2023-03-03T06:04:18.466Z,11.48
2023-03-03T06:06:45.121Z,11.88
2023-03-03T06:09:11.686Z,11.70
2023-03-03T06:11:38.233Z,11.63
2023-03-03T06:14:04.780Z,12.27
2023-03-03T06:16:31.409Z,11.57
2023-03-03T06:18:58.226Z,12.10
2023-03-03T06:21:24.778Z,11.45
2023-03-03T06:23:51.350Z,11.43
2023-03-03T06:26:18.014Z,11.10
2023-03-03T06:28:44.695Z,11.82
2023-03-03T06:31:11.248Z,11.57
2023-03-03T06:33:38.396Z,11.73
2023-03-03T06:36:05.976Z,12.60
2023-03-03T06:38:32.576Z,12.05
2023-03-03T06:41:02.132Z,12.30
2023-03-03T06:43:28.742Z,12.45
2023-03-03T06:45:55.340Z,12.05
2023-03-03T06:48:21.950Z,12.50
2023-03-03T06:50:48.548Z,12.18
2023-03-03T06:53:16.868Z,11.88
2023-03-03T06:55:44.927Z,12.82
2023-03-03T06:58:22.520Z,13.43
2023-03-03T07:00:57.774Z,14.70
2023-03-03T07:03:35.010Z,15.00
2023-03-03T07:06:03.527Z,14.38
2023-03-03T07:08:32.345Z,14.50
2023-03-03T07:11:02.903Z,15.63
2023-03-03T07:13:29.991Z,14.20
2023-03-03T07:16:02.471Z,15.18
2023-03-03T07:18:38.339Z,13.88
2023-03-03T07:21:20.819Z,13.93
2023-03-03T07:23:51.899Z,14.15
2023-03-03T07:26:30.705Z,14.10
2023-03-03T07:29:03.628Z,14.82
2023-03-03T07:31:41.512Z,14.25
2023-03-03T07:34:22.093Z,13.88
2023-03-03T07:36:55.976Z,13.90
2023-03-03T07:39:34.345Z,14.05
2023-03-03T07:42:09.608Z,13.70
2023-03-03T07:44:37.373Z,14.15
2023-03-03T07:47:19.136Z,14.10
2023-03-03T07:49:47.401Z,14.15
2023-03-03T07:52:39.740Z,13.75
2023-03-03T07:55:41.721Z,12.95
2023-03-03T07:58:12.746Z,29.45
2023-03-03T08:00:39.357Z,24.50
2023-03-03T08:03:12.901Z,23.38
2023-03-03T08:05:43.733Z,20.98
2023-03-03T08:08:10.321Z,21.35
2023-03-03T08:10:43.601Z,20.15
2023-03-03T08:13:17.936Z,18.75
2023-03-03T08:15:46.747Z,17.05
2023-03-03T08:18:22.855Z,16.33
2023-03-03T08:21:00.165Z,16.73
2023-03-03T08:23:27.065Z,17.13
2023-03-03T08:25:53.958Z,17.67
2023-03-03T08:28:21.248Z,16.63
2023-03-03T08:30:48.224Z,16.38
2023-03-03T08:33:15.261Z,16.80
2023-03-03T08:35:42.325Z,16.95
2023-03-03T08:38:09.397Z,17.40
2023-03-03T08:40:36.263Z,17.25
2023-03-03T08:43:03.639Z,16.63
2023-03-03T08:45:30.592Z,17.27
2023-03-03T08:47:57.365Z,17.63
2023-03-03T08:50:23.971Z,17.15
2023-03-03T08:52:50.683Z,17.30
2023-03-03T08:55:17.531Z,16.80
2023-03-03T08:57:44.388Z,16.88
2023-03-03T09:00:13.916Z,16.63
2023-03-03T09:02:40.545Z,16.75
2023-03-03T09:05:07.990Z,16.77
2023-03-03T09:07:34.688Z,17.40
2023-03-03T09:10:01.357Z,16.92
2023-03-03T09:12:35.269Z,17.02
2023-03-03T09:15:19.121Z,16.92
2023-03-03T09:17:46.024Z,17.65
2023-03-03T09:20:23.665Z,17.50
2023-03-03T09:22:50.906Z,17.73
2023-03-03T09:25:27.054Z,17.85
2023-03-03T09:27:55.631Z,16.90
2023-03-03T09:30:36.385Z,16.88
2023-03-03T09:33:37.224Z,17.40
2023-03-03T09:36:19.125Z,16.33
2023-03-03T09:38:45.971Z,16.08
2023-03-03T09:41:31.561Z,17.00
2023-03-03T09:44:03.779Z,16.85
2023-03-03T09:46:46.256Z,16.60
2023-03-03T09:49:26.268Z,15.57
2023-03-03T09:52:03.917Z,15.80
2023-03-03T09:55:09.443Z,16.02
2023-03-03T09:57:36.084Z,15.63
2023-03-03T10:00:39.050Z,15.65
2023-03-03T10:03:14.774Z,15.35
2023-03-03T10:05:59.065Z,18.00
2023-03-03T10:08:58.036Z,24.88
2023-03-03T10:11:45.014Z,21.63
2023-03-03T10:14:33.262Z,20.50
2023-03-03T10:17:36.963Z,18.98
2023-03-03T10:20:40.529Z,18.50
2023-03-03T10:23:28.709Z,17.90
2023-03-03T10:26:38.208Z,17.70
2023-03-03T10:29:36.978Z,17.15
2023-03-03T10:32:30.591Z,17.10
2023-03-03T10:35:15.380Z,16.85
2023-03-03T10:37:41.932Z,16.05
2023-03-03T10:40:11.047Z,16.00
2023-03-03T10:42:49.565Z,16.27
2023-03-03T10:45:45.184Z,15.50
2023-03-03T10:48:53.974Z,15.55
2023-03-03T10:51:42.162Z,15.80
2023-03-03T10:54:34.851Z,15.63
2023-03-03T10:57:01.909Z,15.82
2023-03-03T11:00:02.533Z,15.98
2023-03-03T11:02:53.495Z,16.63
2023-03-03T11:05:43.588Z,16.13
2023-03-03T11:08:28.821Z,15.52
2023-03-03T11:11:06.369Z,14.90
2023-03-03T11:13:49.041Z,15.25
2023-03-03T11:16:37.221Z,15.55
2023-03-03T11:19:40.856Z,16.30
2023-03-03T11:22:29.342Z,16.00
2023-03-03T11:25:14.301Z,14.48
2023-03-03T11:28:01.423Z,15.68
2023-03-03T11:30:49.946Z,14.85
2023-03-03T11:33:44.948Z,14.38
2023-03-03T11:36:14.440Z,13.95
2023-03-03T11:39:17.164Z,15.15
2023-03-03T11:42:00.949Z,14.25
2023-03-03T11:44:38.801Z,15.23
2023-03-03T11:47:31.421Z,13.73
2023-03-03T11:50:13.603Z,14.50
2023-03-03T11:53:22.243Z,14.52
2023-03-03T11:55:55.637Z,14.70
2023-03-03T11:58:29.434Z,14.38
2023-03-03T12:01:21.356Z,13.88
2023-03-03T12:03:53.797Z,13.60
2023-03-03T12:06:23.415Z,13.52
2023-03-03T12:08:58.970Z,13.30
2023-03-03T12:11:41.594Z,13.43
2023-03-03T12:14:15.426Z,13.18
2023-03-03T12:16:58.689Z,13.27
2023-03-03T12:19:34.695Z,12.88
2023-03-03T12:22:29.769Z,13.00
2023-03-03T12:25:02.230Z,12.52
2023-03-03T12:27:32.359Z,12.98
2023-03-03T12:30:20.775Z,12.80
2023-03-03T12:33:12.435Z,11.95
2023-03-03T12:36:20.519Z,12.45
2023-03-03T12:39:08.905Z,12.82
2023-03-03T12:41:47.744Z,12.20
2023-03-03T12:44:23.212Z,12.23
2023-03-03T12:46:52.802Z,12.50
2023-03-03T12:49:19.659Z,12.38
2023-03-03T12:52:02.066Z,12.32
2023-03-03T12:54:36.946Z,11.93
2023-03-03T12:57:03.670Z,12.38
2023-03-03T13:00:04.637Z,12.63
2023-03-03T13:03:03.610Z,12.25
2023-03-03T13:05:33.557Z,12.13
2023-03-03T13:08:19.005Z,11.75
2023-03-03T13:13:42.727Z,11.57
2023-03-03T13:16:17.118Z,11.23
2023-03-03T13:19:10.035Z,12.18
2023-03-03T13:21:46.244Z,12.00
2023-03-03T13:24:34.620Z,12.02
2023-03-03T13:27:10.905Z,11.57
2023-03-03T13:29:41.652Z,10.93
2023-03-03T13:32:17.289Z,11.27
2023-03-03T13:34:52.138Z,11.75
2023-03-03T13:37:27.460Z,11.65
2023-03-03T13:40:01.010Z,11.55
2023-03-03T13:42:34.179Z,11.70
2023-03-03T13:45:03.966Z,11.20
2023-03-03T13:47:38.662Z,11.85
2023-03-03T13:50:20.296Z,11.63
2023-03-03T13:53:12.589Z,11.23
2023-03-03T13:55:44.240Z,10.80
2023-03-03T13:58:26.092Z,10.88
2023-03-03T14:01:26.023Z,11.10
2023-03-03T14:03:58.650Z,10.85
2023-03-03T14:06:29.618Z,10.63
2023-03-03T14:09:02.045Z,11.68
2023-03-03T14:11:58.302Z,10.52
2023-03-03T14:14:27.813Z,11.18
2023-03-03T14:17:03.372Z,11.60
2023-03-03T14:19:37.244Z,10.98
2023-03-03T14:22:25.020Z,10.38
2023-03-03T14:25:06.249Z,10.82
2023-03-03T14:27:59.825Z,10.32
2023-03-03T14:30:40.022Z,10.50
2023-03-03T14:33:09.889Z,10.90
2023-03-03T14:36:05.429Z,10.13
2023-03-03T14:38:32.019Z,10.88
2023-03-03T14:41:17.990Z,9.85
2023-03-03T14:43:46.915Z,9.93
2023-03-03T14:46:31.876Z,9.68
2023-03-03T14:49:00.389Z,8.43
2023-03-03T14:51:30.220Z,10.15
2023-03-03T14:53:57.515Z,8.80
2023-03-03T14:56:30.178Z,9.18
2023-03-03T14:59:18.520Z,9.57
2023-03-03T15:01:45.694Z,9.32
2023-03-03T15:04:15.363Z,9.18
2023-03-03T15:06:45.595Z,8.80
2023-03-03T15:09:39.302Z,9.57
2023-03-03T15:12:37.315Z,9.15
2023-03-03T15:15:08.255Z,9.30
2023-03-03T15:17:41.867Z,9.45
2023-03-03T15:20:42.442Z,9.10
2023-03-03T15:23:15.404Z,9.40
2023-03-03T15:25:58.703Z,9.35
2023-03-03T15:28:56.010Z,8.82
2023-03-03T15:31:30.440Z,8.77
2023-03-03T15:34:09.164Z,9.27
2023-03-03T15:37:00.593Z,9.10
2023-03-03T15:39:36.358Z,8.98
2023-03-03T15:42:03.248Z,9.07
2023-03-03T15:44:52.859Z,8.65
2023-03-03T15:47:37.975Z,8.20
2023-03-03T15:50:23.181Z,8.45
2023-03-03T15:53:04.723Z,8.57
2023-03-03T15:55:46.237Z,8.60
2023-03-03T15:58:44.526Z,8.32
2023-03-03T16:01:11.138Z,7.68
2023-03-03T16:03:45.713Z,7.75
2023-03-03T16:06:19.885Z,7.75
2023-03-03T16:09:01.232Z,7.57
2023-03-03T16:11:59.751Z,8.43
2023-03-03T16:14:51.220Z,7.47
2023-03-03T16:17:33.416Z,7.95
2023-03-03T16:20:09.597Z,7.95
2023-03-03T16:23:06.328Z,7.75
2023-03-03T16:25:48.127Z,8.95
2023-03-03T16:28:34.940Z,7.85
2023-03-03T16:31:11.547Z,7.80
2023-03-03T16:33:47.351Z,7.75
2023-03-03T16:36:35.042Z,7.80
2023-03-03T16:39:15.734Z,7.47
2023-03-03T16:41:55.070Z,7.65
2023-03-03T16:44:33.522Z,7.25
2023-03-03T16:47:32.116Z,7.53
2023-03-03T16:50:13.519Z,7.80
2023-03-03T16:53:14.222Z,7.93
2023-03-03T16:56:16.253Z,7.60
2023-03-03T16:59:21.910Z,7.63
2023-03-03T17:02:00.525Z,8.15
2023-03-03T17:04:46.684Z,7.70
2023-03-03T17:08:02.908Z,8.90
2023-03-03T17:10:33.752Z,8.02
2023-03-03T17:13:15.602Z,8.20
2023-03-03T17:16:12.830Z,8.07
2023-03-03T17:19:16.344Z,6.70
2023-03-03T17:22:01.189Z,6.70
2023-03-03T17:24:52.775Z,7.40
2023-03-03T17:27:26.510Z,7.50
2023-03-03T17:30:04.086Z,7.40
2023-03-03T17:32:36.970Z,7.88
2023-03-03T17:35:25.073Z,7.40
2023-03-03T17:38:24.570Z,8.93
2023-03-03T17:41:03.518Z,8.80
2023-03-03T17:43:57.274Z,8.93
2023-03-03T17:46:34.465Z,8.73
2023-03-03T17:49:09.996Z,9.68
2023-03-03T17:51:49.740Z,8.60
2023-03-03T17:54:54.459Z,9.32
2023-03-03T17:57:36.160Z,8.98
2023-03-03T18:00:33.449Z,10.00
2023-03-03T18:03:27.813Z,9.48
2023-03-03T18:06:00.287Z,10.13
2023-03-03T18:08:48.017Z,9.50
2023-03-03T18:11:34.397Z,10.65
2023-03-03T18:14:08.579Z,10.00
2023-03-03T18:16:46.860Z,9.68
2023-03-03T18:19:39.356Z,9.50
2023-03-03T18:22:13.982Z,10.40
2023-03-03T18:24:50.141Z,10.27
2023-03-03T18:27:25.612Z,11.02
2023-03-03T18:30:10.784Z,11.02
2023-03-03T18:32:42.515Z,11.30
2023-03-03T18:35:24.971Z,12.38
2023-03-03T18:37:52.003Z,11.95
2023-03-03T18:40:24.267Z,13.57
2023-03-03T18:42:53.861Z,13.35
2023-03-03T18:45:20.474Z,14.02
2023-03-03T18:48:12.935Z,14.63
2023-03-03T18:50:41.807Z,14.88
2023-03-03T18:53:14.306Z,15.43
2023-03-03T18:56:01.634Z,16.20
2023-03-03T18:58:43.753Z,17.85
2023-03-03T19:01:31.983Z,16.48
2023-03-03T19:04:16.231Z,16.40
2023-03-03T19:06:45.745Z,15.93
2023-03-03T19:09:18.404Z,15.43
2023-03-03T19:11:57.456Z,16.05
2023-03-03T19:14:28.965Z,14.90
2023-03-03T19:16:58.271Z,10.82
2023-03-03T19:19:30.244Z,12.38
2023-03-03T19:22:25.880Z,11.45
2023-03-03T19:27:49.523Z,12.20
2023-03-03T19:30:22.890Z,12.95
2023-03-03T19:32:56.633Z,13.88
2023-03-03T19:35:23.313Z,13.60
2023-03-03T19:38:15.242Z,14.52
2023-03-03T19:40:58.221Z,14.82
2023-03-03T19:43:37.561Z,14.25
2023-03-03T19:46:29.771Z,14.30
2023-03-03T19:49:02.708Z,14.25
2023-03-03T19:51:55.545Z,14.55
2023-03-03T19:54:53.181Z,14.38
2023-03-03T19:57:45.957Z,14.20
2023-03-03T20:00:18.334Z,15.55
2023-03-03T20:03:02.419Z,16.17
2023-03-03T20:05:46.264Z,16.20
2023-03-03T20:08:22.548Z,15.27
2023-03-03T20:10:55.194Z,16.38
2023-03-03T20:13:59.532Z,15.77
2023-03-03T20:16:33.620Z,15.48
2023-03-03T20:19:25.753Z,15.70
2023-03-03T20:21:52.292Z,15.30
2023-03-03T20:24:48.926Z,14.77
2023-03-03T20:27:29.916Z,15.13
2023-03-03T20:30:08.413Z,14.80
2023-03-03T20:32:50.506Z,14.55
2023-03-03T20:35:25.176Z,14.98
2023-03-03T20:38:16.297Z,15.02
2023-03-03T20:41:12.813Z,14.63
2023-03-03T20:44:08.716Z,14.50
2023-03-03T20:46:49.242Z,14.90
2023-03-03T20:49:30.704Z,14.35
2023-03-03T20:52:04.052Z,14.90
2023-03-03T20:55:10.489Z,14.35
2023-03-03T20:57:41.237Z,14.70
2023-03-03T21:00:37.109Z,14.52
2023-03-03T21:03:16.163Z,14.35
2023-03-03T21:06:03.863Z,14.00
2023-03-03T21:08:41.699Z,14.13
2023-03-03T21:11:08.814Z,13.68
2023-03-03T21:13:44.272Z,14.10
2023-03-03T21:16:31.207Z,13.73
2023-03-03T21:19:10.242Z,14.45
2023-03-03T21:21:37.666Z,14.15
2023-03-03T21:24:04.953Z,13.45
2023-03-03T21:26:50.931Z,13.90
2023-03-03T21:29:34.645Z,14.05
2023-03-03T21:32:08.065Z,9.70
2023-03-03T21:34:35.583Z,9.43
2023-03-03T21:37:06.829Z,11.48
2023-03-03T21:39:34.250Z,11.75
2023-03-03T21:42:12.024Z,12.02
2023-03-03T21:44:46.649Z,12.35
2023-03-03T21:47:15.059Z,12.10
2023-03-03T21:49:43.291Z,12.48
2023-03-03T21:52:11.232Z,12.43
2023-03-03T21:54:38.718Z,12.35
2023-03-03T21:57:05.526Z,12.88
2023-03-03T21:59:32.138Z,12.75
2023-03-03T22:01:58.769Z,12.93
2023-03-03T22:04:25.929Z,12.77
2023-03-03T22:06:55.373Z,12.32
2023-03-03T22:09:22.097Z,13.27
2023-03-03T22:11:48.828Z,12.75
2023-03-03T22:14:15.932Z,12.70
2023-03-03T22:16:42.749Z,13.20
2023-03-03T22:19:09.796Z,12.50
2023-03-03T22:21:37.498Z,13.27
2023-03-03T22:24:05.276Z,12.57
2023-03-03T22:26:31.935Z,12.45
2023-03-03T22:28:58.719Z,12.77
2023-03-03T22:31:26.348Z,13.05
2023-03-03T22:33:52.959Z,12.70
2023-03-03T22:36:19.700Z,12.98
2023-03-03T22:38:47.106Z,12.63
2023-03-03T22:41:14.608Z,13.02
2023-03-03T22:43:42.056Z,13.13
2023-03-03T22:46:09.321Z,13.38
2023-03-03T22:48:36.545Z,13.35
2023-03-03T22:51:03.217Z,12.35
2023-03-03T22:53:29.936Z,13.00
2023-03-03T22:55:56.601Z,13.40
2023-03-03T22:58:26.262Z,13.40
2023-03-03T23:00:54.094Z,13.02
2023-03-03T23:03:21.373Z,13.20
2023-03-03T23:05:51.507Z,13.10
2023-03-03T23:08:19.285Z,12.93
2023-03-03T23:10:46.066Z,13.73
2023-03-03T23:13:13.223Z,13.93
2023-03-03T23:15:40.060Z,14.02
2023-03-03T23:18:07.021Z,13.98
2023-03-03T23:20:33.979Z,14.15
2023-03-03T23:23:00.934Z,13.38
2023-03-03T23:25:28.869Z,13.60
2023-03-03T23:27:56.227Z,13.25
2023-03-03T23:30:23.095Z,13.75
2023-03-03T23:32:50.162Z,14.02
2023-03-03T23:35:16.971Z,13.73
2023-03-03T23:37:43.650Z,13.27
2023-03-03T23:40:11.489Z,14.00
2023-03-03T23:42:38.175Z,14.02
2023-03-03T23:45:05.357Z,13.43
2023-03-03T23:47:32.068Z,13.93
2023-03-03T23:49:58.752Z,14.15
2023-03-03T23:52:25.359Z,13.38
2023-03-03T23:54:53.101Z,13.48
2023-03-03T23:57:20.068Z,14.13
2023-03-03T23:59:46.827Z,13.98
